sensor_id;sensor_type;location;lat;lon;timestamp;P1;durP1;ratioP1;P2;durP2;ratioP2
20067;SDS011;10194;50.824;7.134;2022-11-20T00:02:23;368.23;;;339.43;;
20067;SDS011;10194;50.824;7.134;2022-11-20T00:04:49;367.27;;;338.40;;
20067;SDS011;10194;50.824;7.134;2022-11-20T00:07:14;367.53;;;338.53;;
20067;SDS011;10194;50.824;7.134;2022-11-20T00:09:40;367.10;;;338.10;;
20067;SDS011;10194;50.824;7.134;2022-11-20T00:12:06;365.10;;;336.47;;
20067;SDS011;10194;50.824;7.134;2022-11-20T00:14:32;364.50;;;335.60;;
20067;SDS011;10194;50.824;7.134;2022-11-20T00:16:58;362.70;;;334.47;;
20067;SDS011;10194;50.824;7.134;2022-11-20T00:19:23;370.23;;;341.33;;
20067;SDS011;10194;50.824;7.134;2022-11-20T00:21:49;368.33;;;339.40;;
20067;SDS011;10194;50.824;7.134;2022-11-20T00:24:16;368.97;;;340.03;;
20067;SDS011;10194;50.824;7.134;2022-11-20T00:26:42;363.37;;;334.70;;
20067;SDS011;10194;50.824;7.134;2022-11-20T00:29:08;369.80;;;340.60;;
20067;SDS011;10194;50.824;7.134;2022-11-20T00:31:35;369.67;;;340.80;;
20067;SDS011;10194;50.824;7.134;2022-11-20T00:34:01;363.20;;;334.23;;
20067;SDS011;10194;50.824;7.134;2022-11-20T00:36:27;364.73;;;335.97;;
20067;SDS011;10194;50.824;7.134;2022-11-20T00:38:57;369.53;;;340.53;;
20067;SDS011;10194;50.824;7.134;2022-11-20T00:41:23;367.57;;;338.97;;
20067;SDS011;10194;50.824;7.134;2022-11-20T00:43:52;367.13;;;338.63;;
20067;SDS011;10194;50.824;7.134;2022-11-20T00:46:20;368.30;;;339.53;;
20067;SDS011;10194;50.824;7.134;2022-11-20T00:48:48;369.53;;;340.87;;
20067;SDS011;10194;50.824;7.134;2022-11-20T00:51:15;370.03;;;341.30;;
20067;SDS011;10194;50.824;7.134;2022-11-20T00:53:45;361.77;;;333.43;;
20067;SDS011;10194;50.824;7.134;2022-11-20T00:56:12;367.00;;;337.93;;
20067;SDS011;10194;50.824;7.134;2022-11-20T00:58:42;364.30;;;336.07;;
20067;SDS011;10194;50.824;7.134;2022-11-20T01:03:44;370.50;;;341.03;;
20067;SDS011;10194;50.824;7.134;2022-11-20T01:06:17;365.03;;;336.43;;
20067;SDS011;10194;50.824;7.134;2022-11-20T01:08:48;364.43;;;335.67;;
20067;SDS011;10194;50.824;7.134;2022-11-20T01:11:19;366.27;;;337.40;;
20067;SDS011;10194;50.824;7.134;2022-11-20T01:13:48;359.47;;;331.13;;
20067;SDS011;10194;50.824;7.134;2022-11-20T01:16:17;359.80;;;331.60;;
20067;SDS011;10194;50.824;7.134;2022-11-20T01:19:04;363.97;;;335.07;;
20067;SDS011;10194;50.824;7.134;2022-11-20T01:21:34;364.30;;;335.50;;
20067;SDS011;10194;50.824;7.134;2022-11-20T01:24:02;362.53;;;334.20;;
20067;SDS011;10194;50.824;7.134;2022-11-20T01:26:31;364.40;;;335.50;;
20067;SDS011;10194;50.824;7.134;2022-11-20T01:28:59;360.23;;;331.63;;
20067;SDS011;10194;50.824;7.134;2022-11-20T01:31:36;365.17;;;336.83;;
20067;SDS011;10194;50.824;7.134;2022-11-20T01:34:03;368.00;;;339.13;;
20067;SDS011;10194;50.824;7.134;2022-11-20T01:36:32;366.10;;;337.47;;
20067;SDS011;10194;50.824;7.134;2022-11-20T01:39:01;360.83;;;332.77;;
20067;SDS011;10194;50.824;7.134;2022-11-20T01:41:36;368.20;;;339.70;;
20067;SDS011;10194;50.824;7.134;2022-11-20T01:44:22;364.20;;;336.00;;
20067;SDS011;10194;50.824;7.134;2022-11-20T01:47:12;366.17;;;337.63;;
20067;SDS011;10194;50.824;7.134;2022-11-20T01:49:46;358.37;;;330.50;;
20067;SDS011;10194;50.824;7.134;2022-11-20T01:52:36;365.60;;;336.93;;
20067;SDS011;10194;50.824;7.134;2022-11-20T01:55:09;358.93;;;330.60;;
20067;SDS011;10194;50.824;7.134;2022-11-20T01:57:46;365.70;;;337.03;;
20067;SDS011;10194;50.824;7.134;2022-11-20T02:00:14;364.20;;;335.80;;
20067;SDS011;10194;50.824;7.134;2022-11-20T02:02:47;368.30;;;338.97;;
20067;SDS011;10194;50.824;7.134;2022-11-20T02:05:35;361.70;;;333.53;;
20067;SDS011;10194;50.824;7.134;2022-11-20T02:08:34;367.80;;;339.37;;
20067;SDS011;10194;50.824;7.134;2022-11-20T02:11:01;363.83;;;335.37;;
20067;SDS011;10194;50.824;7.134;2022-11-20T02:13:27;361.73;;;333.43;;
20067;SDS011;10194;50.824;7.134;2022-11-20T02:16:09;367.43;;;338.73;;
20067;SDS011;10194;50.824;7.134;2022-11-20T02:18:41;364.83;;;336.23;;
20067;SDS011;10194;50.824;7.134;2022-11-20T02:21:27;367.30;;;338.53;;
20067;SDS011;10194;50.824;7.134;2022-11-20T02:24:19;363.00;;;334.57;;
20067;SDS011;10194;50.824;7.134;2022-11-20T02:29:25;360.63;;;331.87;;
20067;SDS011;10194;50.824;7.134;2022-11-20T02:32:04;358.57;;;330.30;;
20067;SDS011;10194;50.824;7.134;2022-11-20T02:34:30;363.40;;;334.77;;
20067;SDS011;10194;50.824;7.134;2022-11-20T02:36:56;361.40;;;332.67;;
20067;SDS011;10194;50.824;7.134;2022-11-20T02:39:24;355.47;;;327.07;;
20067;SDS011;10194;50.824;7.134;2022-11-20T02:41:52;358.83;;;330.63;;
20067;SDS011;10194;50.824;7.134;2022-11-20T02:44:19;360.60;;;331.37;;
20067;SDS011;10194;50.824;7.134;2022-11-20T02:46:45;360.50;;;331.70;;
20067;SDS011;10194;50.824;7.134;2022-11-20T02:49:11;358.93;;;330.73;;
20067;SDS011;10194;50.824;7.134;2022-11-20T02:51:37;361.33;;;332.70;;
20067;SDS011;10194;50.824;7.134;2022-11-20T02:54:03;358.77;;;330.53;;
20067;SDS011;10194;50.824;7.134;2022-11-20T02:56:29;359.97;;;331.07;;
20067;SDS011;10194;50.824;7.134;2022-11-20T02:58:55;359.53;;;331.27;;
20067;SDS011;10194;50.824;7.134;2022-11-20T03:01:21;358.97;;;330.57;;
20067;SDS011;10194;50.824;7.134;2022-11-20T03:03:47;365.13;;;336.13;;
20067;SDS011;10194;50.824;7.134;2022-11-20T03:06:14;363.60;;;334.63;;
20067;SDS011;10194;50.824;7.134;2022-11-20T03:08:41;364.83;;;336.17;;
20067;SDS011;10194;50.824;7.134;2022-11-20T03:11:08;365.27;;;336.50;;
20067;SDS011;10194;50.824;7.134;2022-11-20T03:13:34;366.90;;;338.10;;
20067;SDS011;10194;50.824;7.134;2022-11-20T03:16:07;364.97;;;336.37;;
20067;SDS011;10194;50.824;7.134;2022-11-20T03:18:51;363.63;;;334.80;;
20067;SDS011;10194;50.824;7.134;2022-11-20T03:21:18;365.60;;;337.13;;
20067;SDS011;10194;50.824;7.134;2022-11-20T03:23:44;366.37;;;337.50;;
20067;SDS011;10194;50.824;7.134;2022-11-20T03:26:11;362.30;;;333.97;;
20067;SDS011;10194;50.824;7.134;2022-11-20T03:28:41;364.97;;;336.20;;
20067;SDS011;10194;50.824;7.134;2022-11-20T03:31:13;366.80;;;338.23;;
20067;SDS011;10194;50.824;7.134;2022-11-20T03:33:41;363.17;;;334.63;;
20067;SDS011;10194;50.824;7.134;2022-11-20T03:36:08;366.37;;;337.93;;
20067;SDS011;10194;50.824;7.134;2022-11-20T03:38:37;372.80;;;343.63;;
20067;SDS011;10194;50.824;7.134;2022-11-20T03:41:05;375.40;;;346.17;;
20067;SDS011;10194;50.824;7.134;2022-11-20T03:43:34;369.07;;;340.57;;
20067;SDS011;10194;50.824;7.134;2022-11-20T03:45:59;373.13;;;344.00;;
20067;SDS011;10194;50.824;7.134;2022-11-20T03:48:26;369.30;;;340.50;;
20067;SDS011;10194;50.824;7.134;2022-11-20T03:50:53;365.57;;;336.77;;
20067;SDS011;10194;50.824;7.134;2022-11-20T03:53:52;364.57;;;335.63;;
20067;SDS011;10194;50.824;7.134;2022-11-20T03:56:22;365.53;;;336.80;;
20067;SDS011;10194;50.824;7.134;2022-11-20T03:58:50;365.40;;;336.53;;
20067;SDS011;10194;50.824;7.134;2022-11-20T04:01:17;367.73;;;338.43;;
20067;SDS011;10194;50.824;7.134;2022-11-20T04:03:48;365.13;;;336.20;;
20067;SDS011;10194;50.824;7.134;2022-11-20T04:06:17;361.20;;;332.43;;
20067;SDS011;10194;50.824;7.134;2022-11-20T04:08:46;366.43;;;337.43;;
20067;SDS011;10194;50.824;7.134;2022-11-20T04:11:12;367.87;;;339.40;;
20067;SDS011;10194;50.824;7.134;2022-11-20T04:13:51;363.80;;;334.87;;
20067;SDS011;10194;50.824;7.134;2022-11-20T04:16:20;362.77;;;334.00;;
20067;SDS011;10194;50.824;7.134;2022-11-20T04:18:51;365.50;;;336.57;;
20067;SDS011;10194;50.824;7.134;2022-11-20T04:21:22;367.50;;;338.27;;
20067;SDS011;10194;50.824;7.134;2022-11-20T04:23:49;371.07;;;341.73;;
20067;SDS011;10194;50.824;7.134;2022-11-20T04:26:15;366.63;;;337.47;;
20067;SDS011;10194;50.824;7.134;2022-11-20T04:28:42;367.13;;;337.77;;
20067;SDS011;10194;50.824;7.134;2022-11-20T04:31:09;366.90;;;337.80;;
20067;SDS011;10194;50.824;7.134;2022-11-20T04:33:40;363.30;;;334.43;;
20067;SDS011;10194;50.824;7.134;2022-11-20T04:36:28;364.10;;;334.93;;
20067;SDS011;10194;50.824;7.134;2022-11-20T04:38:54;362.23;;;333.00;;
20067;SDS011;10194;50.824;7.134;2022-11-20T04:41:22;366.93;;;337.97;;
20067;SDS011;10194;50.824;7.134;2022-11-20T04:43:52;365.80;;;336.50;;
20067;SDS011;10194;50.824;7.134;2022-11-20T04:46:24;369.27;;;339.53;;
20067;SDS011;10194;50.824;7.134;2022-11-20T04:48:51;368.50;;;339.07;;
20067;SDS011;10194;50.824;7.134;2022-11-20T04:51:18;364.53;;;335.70;;
20067;SDS011;10194;50.824;7.134;2022-11-20T04:53:44;373.73;;;344.27;;
20067;SDS011;10194;50.824;7.134;2022-11-20T04:56:10;372.13;;;342.73;;
20067;SDS011;10194;50.824;7.134;2022-11-20T04:58:37;369.87;;;339.83;;
20067;SDS011;10194;50.824;7.134;2022-11-20T05:01:05;367.63;;;338.40;;
20067;SDS011;10194;50.824;7.134;2022-11-20T05:03:37;368.87;;;339.47;;
20067;SDS011;10194;50.824;7.134;2022-11-20T05:06:04;370.50;;;341.07;;
20067;SDS011;10194;50.824;7.134;2022-11-20T05:08:31;367.80;;;338.57;;
20067;SDS011;10194;50.824;7.134;2022-11-20T05:11:04;367.30;;;338.00;;
20067;SDS011;10194;50.824;7.134;2022-11-20T05:13:33;371.83;;;341.80;;
20067;SDS011;10194;50.824;7.134;2022-11-20T05:16:04;368.70;;;339.23;;
20067;SDS011;10194;50.824;7.134;2022-11-20T05:18:38;367.20;;;337.97;;
20067;SDS011;10194;50.824;7.134;2022-11-20T05:21:05;370.60;;;341.70;;
20067;SDS011;10194;50.824;7.134;2022-11-20T05:23:33;371.83;;;342.60;;
20067;SDS011;10194;50.824;7.134;2022-11-20T05:25:59;371.67;;;341.97;;
20067;SDS011;10194;50.824;7.134;2022-11-20T05:28:26;375.23;;;345.70;;
20067;SDS011;10194;50.824;7.134;2022-11-20T05:30:52;369.60;;;340.30;;
20067;SDS011;10194;50.824;7.134;2022-11-20T05:33:18;371.00;;;341.93;;
20067;SDS011;10194;50.824;7.134;2022-11-20T05:35:44;366.33;;;337.40;;
20067;SDS011;10194;50.824;7.134;2022-11-20T05:38:10;367.03;;;337.93;;
20067;SDS011;10194;50.824;7.134;2022-11-20T05:40:36;365.97;;;337.17;;
20067;SDS011;10194;50.824;7.134;2022-11-20T05:43:02;366.90;;;337.90;;
20067;SDS011;10194;50.824;7.134;2022-11-20T05:45:28;366.97;;;338.23;;
20067;SDS011;10194;50.824;7.134;2022-11-20T05:47:57;368.30;;;339.37;;
20067;SDS011;10194;50.824;7.134;2022-11-20T05:50:28;361.70;;;333.53;;
20067;SDS011;10194;50.824;7.134;2022-11-20T05:52:54;367.20;;;338.03;;
20067;SDS011;10194;50.824;7.134;2022-11-20T05:55:19;364.87;;;336.33;;
20067;SDS011;10194;50.824;7.134;2022-11-20T05:57:45;363.87;;;335.03;;
20067;SDS011;10194;50.824;7.134;2022-11-20T06:00:11;362.67;;;334.57;;
20067;SDS011;10194;50.824;7.134;2022-11-20T06:02:38;368.27;;;339.30;;
20067;SDS011;10194;50.824;7.134;2022-11-20T06:05:03;366.57;;;337.93;;
20067;SDS011;10194;50.824;7.134;2022-11-20T06:07:30;355.90;;;328.13;;
20067;SDS011;10194;50.824;7.134;2022-11-20T06:09:55;359.07;;;331.07;;
20067;SDS011;10194;50.824;7.134;2022-11-20T06:12:21;357.37;;;329.03;;
20067;SDS011;10194;50.824;7.134;2022-11-20T06:14:47;361.73;;;333.13;;
20067;SDS011;10194;50.824;7.134;2022-11-20T06:17:13;363.03;;;334.50;;
20067;SDS011;10194;50.824;7.134;2022-11-20T06:19:38;362.77;;;334.17;;
20067;SDS011;10194;50.824;7.134;2022-11-20T06:22:04;361.67;;;332.67;;
20067;SDS011;10194;50.824;7.134;2022-11-20T06:24:30;361.40;;;332.63;;
20067;SDS011;10194;50.824;7.134;2022-11-20T06:26:56;362.30;;;333.93;;
20067;SDS011;10194;50.824;7.134;2022-11-20T06:29:21;367.83;;;339.37;;
20067;SDS011;10194;50.824;7.134;2022-11-20T06:31:47;367.60;;;339.07;;
20067;SDS011;10194;50.824;7.134;2022-11-20T06:34:13;363.97;;;335.23;;
20067;SDS011;10194;50.824;7.134;2022-11-20T06:36:39;371.37;;;342.60;;
20067;SDS011;10194;50.824;7.134;2022-11-20T06:39:04;364.60;;;336.10;;
20067;SDS011;10194;50.824;7.134;2022-11-20T06:41:30;367.00;;;338.43;;
20067;SDS011;10194;50.824;7.134;2022-11-20T06:43:56;367.90;;;338.30;;
20067;SDS011;10194;50.824;7.134;2022-11-20T06:46:21;366.67;;;337.80;;
20067;SDS011;10194;50.824;7.134;2022-11-20T06:48:48;364.13;;;335.47;;
20067;SDS011;10194;50.824;7.134;2022-11-20T06:51:14;369.63;;;340.53;;
20067;SDS011;10194;50.824;7.134;2022-11-20T06:53:40;367.23;;;338.43;;
20067;SDS011;10194;50.824;7.134;2022-11-20T06:56:06;371.20;;;342.03;;
20067;SDS011;10194;50.824;7.134;2022-11-20T06:58:33;371.93;;;342.90;;
20067;SDS011;10194;50.824;7.134;2022-11-20T07:01:03;372.03;;;342.67;;
20067;SDS011;10194;50.824;7.134;2022-11-20T07:03:32;368.57;;;339.53;;
20067;SDS011;10194;50.824;7.134;2022-11-20T07:05:58;374.97;;;345.70;;
20067;SDS011;10194;50.824;7.134;2022-11-20T07:08:25;369.70;;;341.13;;
20067;SDS011;10194;50.824;7.134;2022-11-20T07:10:51;372.37;;;343.40;;
20067;SDS011;10194;50.824;7.134;2022-11-20T07:13:16;370.23;;;341.27;;
20067;SDS011;10194;50.824;7.134;2022-11-20T07:15:42;369.57;;;340.60;;
20067;SDS011;10194;50.824;7.134;2022-11-20T07:18:08;375.97;;;346.70;;
20067;SDS011;10194;50.824;7.134;2022-11-20T07:20:34;376.50;;;346.53;;
20067;SDS011;10194;50.824;7.134;2022-11-20T07:23:00;377.83;;;348.10;;
20067;SDS011;10194;50.824;7.134;2022-11-20T07:25:26;372.93;;;343.83;;
20067;SDS011;10194;50.824;7.134;2022-11-20T07:27:56;376.33;;;345.90;;
20067;SDS011;10194;50.824;7.134;2022-11-20T07:30:26;378.07;;;348.60;;
20067;SDS011;10194;50.824;7.134;2022-11-20T07:32:53;381.50;;;350.63;;
20067;SDS011;10194;50.824;7.134;2022-11-20T07:35:20;373.93;;;344.40;;
20067;SDS011;10194;50.824;7.134;2022-11-20T07:37:47;376.00;;;345.93;;
20067;SDS011;10194;50.824;7.134;2022-11-20T07:40:13;377.87;;;348.13;;
20067;SDS011;10194;50.824;7.134;2022-11-20T07:42:49;375.33;;;345.50;;
20067;SDS011;10194;50.824;7.134;2022-11-20T07:45:17;377.87;;;347.60;;
20067;SDS011;10194;50.824;7.134;2022-11-20T07:47:44;377.07;;;346.57;;
20067;SDS011;10194;50.824;7.134;2022-11-20T07:50:10;368.97;;;338.67;;
20067;SDS011;10194;50.824;7.134;2022-11-20T07:52:37;373.77;;;342.87;;
20067;SDS011;10194;50.824;7.134;2022-11-20T07:55:03;370.23;;;339.80;;
20067;SDS011;10194;50.824;7.134;2022-11-20T07:57:30;369.20;;;338.70;;
20067;SDS011;10194;50.824;7.134;2022-11-20T07:59:55;368.80;;;338.10;;
20067;SDS011;10194;50.824;7.134;2022-11-20T08:02:21;373.63;;;343.17;;
20067;SDS011;10194;50.824;7.134;2022-11-20T08:04:47;374.13;;;343.83;;
20067;SDS011;10194;50.824;7.134;2022-11-20T08:07:13;374.60;;;344.00;;
20067;SDS011;10194;50.824;7.134;2022-11-20T08:09:39;368.57;;;338.40;;
20067;SDS011;10194;50.824;7.134;2022-11-20T08:12:04;369.93;;;339.53;;
20067;SDS011;10194;50.824;7.134;2022-11-20T08:14:49;378.50;;;347.87;;
20067;SDS011;10194;50.824;7.134;2022-11-20T08:17:15;373.40;;;342.23;;
20067;SDS011;10194;50.824;7.134;2022-11-20T08:19:40;373.33;;;342.17;;
20067;SDS011;10194;50.824;7.134;2022-11-20T08:22:06;370.93;;;339.87;;
20067;SDS011;10194;50.824;7.134;2022-11-20T08:24:32;368.67;;;337.40;;
20067;SDS011;10194;50.824;7.134;2022-11-20T08:26:58;373.67;;;342.10;;
20067;SDS011;10194;50.824;7.134;2022-11-20T08:29:25;372.60;;;340.43;;
20067;SDS011;10194;50.824;7.134;2022-11-20T08:31:52;367.30;;;335.20;;
20067;SDS011;10194;50.824;7.134;2022-11-20T08:34:18;371.77;;;339.53;;
20067;SDS011;10194;50.824;7.134;2022-11-20T08:36:44;378.30;;;346.37;;
20067;SDS011;10194;50.824;7.134;2022-11-20T08:39:12;369.47;;;337.53;;
20067;SDS011;10194;50.824;7.134;2022-11-20T08:41:38;368.80;;;337.13;;
20067;SDS011;10194;50.824;7.134;2022-11-20T08:44:05;365.20;;;333.47;;
20067;SDS011;10194;50.824;7.134;2022-11-20T08:46:38;363.47;;;330.77;;
20067;SDS011;10194;50.824;7.134;2022-11-20T08:49:06;363.20;;;330.40;;
20067;SDS011;10194;50.824;7.134;2022-11-20T08:51:35;358.47;;;324.47;;
20067;SDS011;10194;50.824;7.134;2022-11-20T08:54:02;365.80;;;331.93;;
20067;SDS011;10194;50.824;7.134;2022-11-20T08:56:29;360.17;;;326.60;;
20067;SDS011;10194;50.824;7.134;2022-11-20T08:58:55;362.03;;;329.07;;
20067;SDS011;10194;50.824;7.134;2022-11-20T09:01:22;365.80;;;332.53;;
20067;SDS011;10194;50.824;7.134;2022-11-20T09:03:48;364.23;;;331.30;;
20067;SDS011;10194;50.824;7.134;2022-11-20T09:06:14;364.20;;;330.63;;
20067;SDS011;10194;50.824;7.134;2022-11-20T09:08:41;360.70;;;327.63;;
20067;SDS011;10194;50.824;7.134;2022-11-20T09:11:06;361.80;;;329.17;;
20067;SDS011;10194;50.824;7.134;2022-11-20T09:13:33;360.67;;;328.03;;
20067;SDS011;10194;50.824;7.134;2022-11-20T09:18:32;364.03;;;331.10;;
20067;SDS011;10194;50.824;7.134;2022-11-20T09:21:02;365.53;;;332.53;;
20067;SDS011;10194;50.824;7.134;2022-11-20T09:23:32;364.77;;;331.57;;
20067;SDS011;10194;50.824;7.134;2022-11-20T09:26:10;356.10;;;323.53;;
20067;SDS011;10194;50.824;7.134;2022-11-20T09:28:37;363.60;;;330.03;;
20067;SDS011;10194;50.824;7.134;2022-11-20T09:31:07;361.37;;;328.13;;
20067;SDS011;10194;50.824;7.134;2022-11-20T09:33:46;356.40;;;322.97;;
20067;SDS011;10194;50.824;7.134;2022-11-20T09:36:12;359.97;;;326.73;;
20067;SDS011;10194;50.824;7.134;2022-11-20T09:38:38;360.23;;;327.27;;
20067;SDS011;10194;50.824;7.134;2022-11-20T09:41:05;361.57;;;328.03;;
20067;SDS011;10194;50.824;7.134;2022-11-20T09:49:26;362.77;;;329.63;;
20067;SDS011;10194;50.824;7.134;2022-11-20T09:56:00;364.03;;;331.07;;
20067;SDS011;10194;50.824;7.134;2022-11-20T09:58:33;361.97;;;328.57;;
20067;SDS011;10194;50.824;7.134;2022-11-20T10:01:19;366.97;;;333.30;;
20067;SDS011;10194;50.824;7.134;2022-11-20T10:06:47;360.97;;;327.73;;
20067;SDS011;10194;50.824;7.134;2022-11-20T10:09:55;361.73;;;328.73;;
20067;SDS011;10194;50.824;7.134;2022-11-20T10:12:27;364.17;;;330.83;;
20067;SDS011;10194;50.824;7.134;2022-11-20T10:15:21;359.87;;;326.70;;
20067;SDS011;10194;50.824;7.134;2022-11-20T10:29:52;369.00;;;336.03;;
20067;SDS011;10194;50.824;7.134;2022-11-20T10:32:43;365.90;;;332.73;;
20067;SDS011;10194;50.824;7.134;2022-11-20T10:35:27;367.10;;;334.30;;
20067;SDS011;10194;50.824;7.134;2022-11-20T10:38:07;369.57;;;335.47;;
20067;SDS011;10194;50.824;7.134;2022-11-20T10:40:54;366.17;;;332.40;;
20067;SDS011;10194;50.824;7.134;2022-11-20T10:43:44;367.97;;;334.33;;
20067;SDS011;10194;50.824;7.134;2022-11-20T10:46:20;371.40;;;338.07;;
20067;SDS011;10194;50.824;7.134;2022-11-20T10:48:47;367.10;;;333.60;;
20067;SDS011;10194;50.824;7.134;2022-11-20T11:00:40;364.10;;;330.70;;
20067;SDS011;10194;50.824;7.134;2022-11-20T11:06:02;368.90;;;336.10;;
20067;SDS011;10194;50.824;7.134;2022-11-20T11:08:43;364.07;;;331.70;;
20067;SDS011;10194;50.824;7.134;2022-11-20T11:13:50;358.60;;;325.47;;
20067;SDS011;10194;50.824;7.134;2022-11-20T11:16:26;361.10;;;327.83;;
20067;SDS011;10194;50.824;7.134;2022-11-20T11:19:02;357.27;;;324.27;;
20067;SDS011;10194;50.824;7.134;2022-11-20T11:21:30;365.00;;;331.50;;
20067;SDS011;10194;50.824;7.134;2022-11-20T11:23:57;365.80;;;332.03;;
20067;SDS011;10194;50.824;7.134;2022-11-20T11:26:25;361.67;;;328.03;;
20067;SDS011;10194;50.824;7.134;2022-11-20T11:28:55;360.30;;;327.57;;
20067;SDS011;10194;50.824;7.134;2022-11-20T11:31:27;362.87;;;329.90;;
20067;SDS011;10194;50.824;7.134;2022-11-20T11:34:10;363.97;;;330.60;;
20067;SDS011;10194;50.824;7.134;2022-11-20T11:36:41;365.30;;;332.10;;
20067;SDS011;10194;50.824;7.134;2022-11-20T11:39:22;364.90;;;331.43;;
20067;SDS011;10194;50.824;7.134;2022-11-20T11:41:49;367.87;;;335.17;;
20067;SDS011;10194;50.824;7.134;2022-11-20T11:44:20;367.57;;;334.67;;
20067;SDS011;10194;50.824;7.134;2022-11-20T11:47:30;364.87;;;331.97;;
20067;SDS011;10194;50.824;7.134;2022-11-20T11:52:45;367.93;;;334.13;;
20067;SDS011;10194;50.824;7.134;2022-11-20T11:55:37;370.27;;;335.07;;
20067;SDS011;10194;50.824;7.134;2022-11-20T12:07:20;354.83;;;322.10;;
20067;SDS011;10194;50.824;7.134;2022-11-20T12:13:21;363.33;;;329.57;;
20067;SDS011;10194;50.824;7.134;2022-11-20T12:15:59;362.50;;;329.17;;
20067;SDS011;10194;50.824;7.134;2022-11-20T12:18:29;371.03;;;336.70;;
20067;SDS011;10194;50.824;7.134;2022-11-20T12:24:06;393.43;;;359.60;;
20067;SDS011;10194;50.824;7.134;2022-11-20T12:27:02;394.73;;;361.17;;
20067;SDS011;10194;50.824;7.134;2022-11-20T12:32:37;380.37;;;345.80;;
20067;SDS011;10194;50.824;7.134;2022-11-20T12:38:42;365.33;;;331.97;;
20067;SDS011;10194;50.824;7.134;2022-11-20T13:02:30;362.17;;;328.30;;
20067;SDS011;10194;50.824;7.134;2022-11-20T13:05:21;372.33;;;338.43;;
20067;SDS011;10194;50.824;7.134;2022-11-20T13:08:02;365.63;;;332.50;;
20067;SDS011;10194;50.824;7.134;2022-11-20T13:10:33;366.30;;;332.33;;
20067;SDS011;10194;50.824;7.134;2022-11-20T13:13:16;365.57;;;331.97;;
20067;SDS011;10194;50.824;7.134;2022-11-20T13:18:42;363.60;;;330.10;;
20067;SDS011;10194;50.824;7.134;2022-11-20T13:21:14;362.60;;;329.40;;
20067;SDS011;10194;50.824;7.134;2022-11-20T13:23:46;361.93;;;328.77;;
20067;SDS011;10194;50.824;7.134;2022-11-20T13:26:16;359.47;;;326.37;;
20067;SDS011;10194;50.824;7.134;2022-11-20T13:28:45;366.10;;;332.27;;
20067;SDS011;10194;50.824;7.134;2022-11-20T13:31:32;360.70;;;327.77;;
20067;SDS011;10194;50.824;7.134;2022-11-20T13:34:01;365.67;;;332.83;;
20067;SDS011;10194;50.824;7.134;2022-11-20T13:36:29;361.23;;;327.43;;
20067;SDS011;10194;50.824;7.134;2022-11-20T13:38:57;355.83;;;322.60;;
20067;SDS011;10194;50.824;7.134;2022-11-20T13:41:34;356.03;;;322.90;;
20067;SDS011;10194;50.824;7.134;2022-11-20T13:44:10;358.67;;;326.00;;
20067;SDS011;10194;50.824;7.134;2022-11-20T13:46:37;360.87;;;327.67;;
20067;SDS011;10194;50.824;7.134;2022-11-20T13:49:10;361.97;;;328.30;;
20067;SDS011;10194;50.824;7.134;2022-11-20T13:52:30;363.67;;;330.07;;
20067;SDS011;10194;50.824;7.134;2022-11-20T13:55:15;362.30;;;328.57;;
20067;SDS011;10194;50.824;7.134;2022-11-20T13:58:00;357.57;;;324.67;;
20067;SDS011;10194;50.824;7.134;2022-11-20T14:00:49;360.70;;;327.70;;
20067;SDS011;10194;50.824;7.134;2022-11-20T14:03:22;363.30;;;329.40;;
20067;SDS011;10194;50.824;7.134;2022-11-20T14:05:54;364.10;;;331.07;;
20067;SDS011;10194;50.824;7.134;2022-11-20T14:08:40;355.57;;;322.70;;
20067;SDS011;10194;50.824;7.134;2022-11-20T14:16:39;360.27;;;326.80;;
20067;SDS011;10194;50.824;7.134;2022-11-20T14:21:46;360.83;;;327.23;;
20067;SDS011;10194;50.824;7.134;2022-11-20T14:24:21;359.33;;;326.80;;
20067;SDS011;10194;50.824;7.134;2022-11-20T14:26:49;358.33;;;325.60;;
20067;SDS011;10194;50.824;7.134;2022-11-20T14:29:19;353.57;;;321.20;;
20067;SDS011;10194;50.824;7.134;2022-11-20T14:32:05;354.57;;;322.17;;
20067;SDS011;10194;50.824;7.134;2022-11-20T14:34:32;356.20;;;323.97;;
20067;SDS011;10194;50.824;7.134;2022-11-20T14:37:05;354.70;;;322.57;;
20067;SDS011;10194;50.824;7.134;2022-11-20T14:39:40;358.33;;;326.13;;
20067;SDS011;10194;50.824;7.134;2022-11-20T14:42:19;351.23;;;319.33;;
20067;SDS011;10194;50.824;7.134;2022-11-20T14:44:50;352.33;;;320.07;;
20067;SDS011;10194;50.824;7.134;2022-11-20T14:47:21;354.37;;;322.63;;
20067;SDS011;10194;50.824;7.134;2022-11-20T14:49:51;357.80;;;325.53;;
20067;SDS011;10194;50.824;7.134;2022-11-20T14:52:25;354.10;;;322.03;;
20067;SDS011;10194;50.824;7.134;2022-11-20T14:54:53;355.80;;;323.17;;
20067;SDS011;10194;50.824;7.134;2022-11-20T14:57:31;356.33;;;324.13;;
20067;SDS011;10194;50.824;7.134;2022-11-20T15:02:44;352.40;;;320.17;;
20067;SDS011;10194;50.824;7.134;2022-11-20T15:05:12;349.63;;;318.07;;
20067;SDS011;10194;50.824;7.134;2022-11-20T15:07:40;349.63;;;317.07;;
20067;SDS011;10194;50.824;7.134;2022-11-20T15:10:18;352.73;;;320.03;;
20067;SDS011;10194;50.824;7.134;2022-11-20T15:12:51;349.17;;;316.77;;
20067;SDS011;10194;50.824;7.134;2022-11-20T15:15:21;355.07;;;322.57;;
20067;SDS011;10194;50.824;7.134;2022-11-20T15:17:56;355.97;;;323.90;;
20067;SDS011;10194;50.824;7.134;2022-11-20T15:20:24;352.40;;;320.60;;
20067;SDS011;10194;50.824;7.134;2022-11-20T15:22:56;356.53;;;324.03;;
20067;SDS011;10194;50.824;7.134;2022-11-20T15:25:22;351.97;;;319.53;;
20067;SDS011;10194;50.824;7.134;2022-11-20T15:27:50;351.23;;;319.37;;
20067;SDS011;10194;50.824;7.134;2022-11-20T15:30:20;345.97;;;314.23;;
20067;SDS011;10194;50.824;7.134;2022-11-20T15:32:47;346.07;;;314.10;;
20067;SDS011;10194;50.824;7.134;2022-11-20T15:35:14;345.07;;;313.17;;
20067;SDS011;10194;50.824;7.134;2022-11-20T15:37:40;341.70;;;310.40;;
20067;SDS011;10194;50.824;7.134;2022-11-20T15:40:07;343.00;;;311.43;;
20067;SDS011;10194;50.824;7.134;2022-11-20T15:42:34;346.47;;;314.37;;
20067;SDS011;10194;50.824;7.134;2022-11-20T15:45:00;343.97;;;312.23;;
20067;SDS011;10194;50.824;7.134;2022-11-20T15:47:28;343.33;;;311.30;;
20067;SDS011;10194;50.824;7.134;2022-11-20T15:49:57;342.20;;;310.87;;
20067;SDS011;10194;50.824;7.134;2022-11-20T15:52:23;343.50;;;312.00;;
20067;SDS011;10194;50.824;7.134;2022-11-20T15:54:49;343.33;;;312.23;;
20067;SDS011;10194;50.824;7.134;2022-11-20T15:57:14;339.90;;;308.57;;
20067;SDS011;10194;50.824;7.134;2022-11-20T15:59:40;340.87;;;309.80;;
20067;SDS011;10194;50.824;7.134;2022-11-20T16:02:12;338.27;;;307.37;;
20067;SDS011;10194;50.824;7.134;2022-11-20T16:04:40;338.53;;;307.90;;